sensor_id;sensor_type;location;lat;lon;timestamp;temperature;humidity
3756;DHT22;1893;52.526;13.360;2022-07-04T00:00:08;21.90;1.00
3756;DHT22;1893;52.526;13.360;2022-07-04T00:02:35;21.80;1.00
3756;DHT22;1893;52.526;13.360;2022-07-04T00:05:02;21.70;1.00
3756;DHT22;1893;52.526;13.360;2022-07-04T00:07:28;21.70;1.00
3756;DHT22;1893;52.526;13.360;2022-07-04T00:09:53;21.70;1.00
3756;DHT22;1893;52.526;13.360;2022-07-04T00:12:19;21.60;7.00
3756;DHT22;1893;52.526;13.360;2022-07-04T00:14:45;21.60;54.40
3756;DHT22;1893;52.526;13.360;2022-07-04T00:17:10;21.50;99.90
3756;DHT22;1893;52.526;13.360;2022-07-04T00:19:36;21.50;99.90
3756;DHT22;1893;52.526;13.360;2022-07-04T00:22:02;21.40;99.90
3756;DHT22;1893;52.526;13.360;2022-07-04T00:24:27;21.30;99.90
3756;DHT22;1893;52.526;13.360;2022-07-04T00:26:53;21.30;99.90
3756;DHT22;1893;52.526;13.360;2022-07-04T00:29:19;21.30;99.90
3756;DHT22;1893;52.526;13.360;2022-07-04T00:31:44;21.20;1.00
3756;DHT22;1893;52.526;13.360;2022-07-04T00:34:10;21.10;1.00
3756;DHT22;1893;52.526;13.360;2022-07-04T00:36:36;21.10;1.00
3756;DHT22;1893;52.526;13.360;2022-07-04T00:39:01;21.00;1.00
3756;DHT22;1893;52.526;13.360;2022-07-04T00:41:27;21.10;1.00
3756;DHT22;1893;52.526;13.360;2022-07-04T00:44:07;20.90;99.90
3756;DHT22;1893;52.526;13.360;2022-07-04T00:46:33;20.80;1.00
3756;DHT22;1893;52.526;13.360;2022-07-04T00:48:59;20.90;1.00
3756;DHT22;1893;52.526;13.360;2022-07-04T00:51:25;20.90;1.00
3756;DHT22;1893;52.526;13.360;2022-07-04T00:53:53;20.90;1.00
3756;DHT22;1893;52.526;13.360;2022-07-04T00:56:20;20.90;1.00
3756;DHT22;1893;52.526;13.360;2022-07-04T00:58:46;20.80;1.00
3756;DHT22;1893;52.526;13.360;2022-07-04T01:01:11;20.80;1.00
3756;DHT22;1893;52.526;13.360;2022-07-04T01:03:37;20.80;1.00
3756;DHT22;1893;52.526;13.360;2022-07-04T01:06:02;20.80;1.00
3756;DHT22;1893;52.526;13.360;2022-07-04T01:08:28;20.60;28.90
3756;DHT22;1893;52.526;13.360;2022-07-04T01:10:54;20.60;1.00
3756;DHT22;1893;52.526;13.360;2022-07-04T01:13:24;20.40;1.00
3756;DHT22;1893;52.526;13.360;2022-07-04T01:15:50;20.30;1.00
3756;DHT22;1893;52.526;13.360;2022-07-04T01:18:18;20.30;99.90
3756;DHT22;1893;52.526;13.360;2022-07-04T01:20:44;20.30;1.00
3756;DHT22;1893;52.526;13.360;2022-07-04T01:23:10;20.30;99.90
3756;DHT22;1893;52.526;13.360;2022-07-04T01:25:36;20.30;1.00
3756;DHT22;1893;52.526;13.360;2022-07-04T01:28:02;20.20;1.00
3756;DHT22;1893;52.526;13.360;2022-07-04T01:30:29;20.20;99.90
3756;DHT22;1893;52.526;13.360;2022-07-04T01:32:55;20.10;99.90
3756;DHT22;1893;52.526;13.360;2022-07-04T01:35:21;20.10;1.00
3756;DHT22;1893;52.526;13.360;2022-07-04T01:37:47;20.10;1.00
3756;DHT22;1893;52.526;13.360;2022-07-04T01:40:13;20.10;1.00
3756;DHT22;1893;52.526;13.360;2022-07-04T01:42:40;20.10;1.00
3756;DHT22;1893;52.526;13.360;2022-07-04T01:45:06;20.00;99.90
3756;DHT22;1893;52.526;13.360;2022-07-04T01:47:32;19.90;1.00
3756;DHT22;1893;52.526;13.360;2022-07-04T01:49:58;19.70;1.00
3756;DHT22;1893;52.526;13.360;2022-07-04T01:52:23;19.60;1.00
3756;DHT22;1893;52.526;13.360;2022-07-04T01:54:49;19.50;31.40
3756;DHT22;1893;52.526;13.360;2022-07-04T01:57:15;19.50;99.90
3756;DHT22;1893;52.526;13.360;2022-07-04T01:59:40;19.40;99.90
3756;DHT22;1893;52.526;13.360;2022-07-04T02:02:24;19.30;99.90
3756;DHT22;1893;52.526;13.360;2022-07-04T02:04:50;19.20;99.90
3756;DHT22;1893;52.526;13.360;2022-07-04T02:07:16;19.10;99.90
3756;DHT22;1893;52.526;13.360;2022-07-04T02:09:41;19.10;99.90
3756;DHT22;1893;52.526;13.360;2022-07-04T02:12:07;19.10;99.90
3756;DHT22;1893;52.526;13.360;2022-07-04T02:14:52;19.10;99.90
3756;DHT22;1893;52.526;13.360;2022-07-04T02:17:17;19.10;99.90
3756;DHT22;1893;52.526;13.360;2022-07-04T02:19:43;18.90;99.90
3756;DHT22;1893;52.526;13.360;2022-07-04T02:22:08;18.80;99.90
3756;DHT22;1893;52.526;13.360;2022-07-04T02:24:34;18.80;99.90
3756;DHT22;1893;52.526;13.360;2022-07-04T02:27:00;18.80;99.90
3756;DHT22;1893;52.526;13.360;2022-07-04T02:29:25;18.70;99.90
3756;DHT22;1893;52.526;13.360;2022-07-04T02:31:51;18.60;99.90
3756;DHT22;1893;52.526;13.360;2022-07-04T02:34:17;18.60;99.90
3756;DHT22;1893;52.526;13.360;2022-07-04T02:36:42;18.50;99.90
3756;DHT22;1893;52.526;13.360;2022-07-04T02:39:08;18.50;99.90
3756;DHT22;1893;52.526;13.360;2022-07-04T02:41:33;18.60;99.90
3756;DHT22;1893;52.526;13.360;2022-07-04T02:43:59;18.60;99.90
3756;DHT22;1893;52.526;13.360;2022-07-04T02:46:25;18.50;99.90
3756;DHT22;1893;52.526;13.360;2022-07-04T02:48:50;18.50;99.90
3756;DHT22;1893;52.526;13.360;2022-07-04T02:51:16;18.50;99.90
3756;DHT22;1893;52.526;13.360;2022-07-04T02:53:42;18.50;99.90
3756;DHT22;1893;52.526;13.360;2022-07-04T02:56:08;18.50;99.90
3756;DHT22;1893;52.526;13.360;2022-07-04T02:58:33;18.40;99.90
3756;DHT22;1893;52.526;13.360;2022-07-04T03:00:59;18.30;99.90
3756;DHT22;1893;52.526;13.360;2022-07-04T03:03:24;18.30;99.90
3756;DHT22;1893;52.526;13.360;2022-07-04T03:05:50;18.30;99.90
3756;DHT22;1893;52.526;13.360;2022-07-04T03:08:16;18.30;99.90
3756;DHT22;1893;52.526;13.360;2022-07-04T03:10:41;18.40;99.90
3756;DHT22;1893;52.526;13.360;2022-07-04T03:13:07;18.30;99.90
3756;DHT22;1893;52.526;13.360;2022-07-04T03:15:32;18.30;99.90
3756;DHT22;1893;52.526;13.360;2022-07-04T03:17:58;18.30;99.90
3756;DHT22;1893;52.526;13.360;2022-07-04T03:20:23;18.30;99.90
3756;DHT22;1893;52.526;13.360;2022-07-04T03:22:49;18.40;99.90
3756;DHT22;1893;52.526;13.360;2022-07-04T03:25:16;18.20;99.90
3756;DHT22;1893;52.526;13.360;2022-07-04T03:27:41;18.20;99.90
3756;DHT22;1893;52.526;13.360;2022-07-04T03:30:07;18.20;99.90
3756;DHT22;1893;52.526;13.360;2022-07-04T03:32:32;18.20;99.90
3756;DHT22;1893;52.526;13.360;2022-07-04T03:34:58;18.10;99.90
3756;DHT22;1893;52.526;13.360;2022-07-04T03:37:23;18.10;99.90
3756;DHT22;1893;52.526;13.360;2022-07-04T03:39:49;18.10;99.90
3756;DHT22;1893;52.526;13.360;2022-07-04T03:42:14;18.10;99.90
3756;DHT22;1893;52.526;13.360;2022-07-04T03:44:40;18.10;99.90
3756;DHT22;1893;52.526;13.360;2022-07-04T03:47:05;18.10;99.90
3756;DHT22;1893;52.526;13.360;2022-07-04T03:49:31;18.20;99.90
3756;DHT22;1893;52.526;13.360;2022-07-04T03:51:56;18.20;99.90
3756;DHT22;1893;52.526;13.360;2022-07-04T03:54:22;18.20;99.90
3756;DHT22;1893;52.526;13.360;2022-07-04T03:56:47;18.10;99.90
3756;DHT22;1893;52.526;13.360;2022-07-04T03:59:13;18.20;99.90
3756;DHT22;1893;52.526;13.360;2022-07-04T04:01:39;18.20;99.90
3756;DHT22;1893;52.526;13.360;2022-07-04T04:04:04;18.10;99.90
3756;DHT22;1893;52.526;13.360;2022-07-04T04:06:48;18.20;99.90
3756;DHT22;1893;52.526;13.360;2022-07-04T04:09:14;18.30;99.90
3756;DHT22;1893;52.526;13.360;2022-07-04T04:11:43;18.40;99.90
3756;DHT22;1893;52.526;13.360;2022-07-04T04:14:09;18.40;99.90
3756;DHT22;1893;52.526;13.360;2022-07-04T04:16:35;18.30;99.90
3756;DHT22;1893;52.526;13.360;2022-07-04T04:19:01;18.40;99.90
3756;DHT22;1893;52.526;13.360;2022-07-04T04:21:26;18.20;99.90
3756;DHT22;1893;52.526;13.360;2022-07-04T04:23:52;18.20;99.90
3756;DHT22;1893;52.526;13.360;2022-07-04T04:26:17;18.20;99.90
3756;DHT22;1893;52.526;13.360;2022-07-04T04:28:43;18.20;99.90
3756;DHT22;1893;52.526;13.360;2022-07-04T04:31:08;18.20;99.90
3756;DHT22;1893;52.526;13.360;2022-07-04T04:33:35;18.10;99.90
3756;DHT22;1893;52.526;13.360;2022-07-04T04:36:01;18.20;99.90
3756;DHT22;1893;52.526;13.360;2022-07-04T04:38:26;18.20;99.90
3756;DHT22;1893;52.526;13.360;2022-07-04T04:40:52;18.20;99.90
3756;DHT22;1893;52.526;13.360;2022-07-04T04:43:17;18.20;99.90
3756;DHT22;1893;52.526;13.360;2022-07-04T04:45:43;18.30;99.90
3756;DHT22;1893;52.526;13.360;2022-07-04T04:48:09;18.20;99.90
3756;DHT22;1893;52.526;13.360;2022-07-04T04:50:35;18.20;99.90
3756;DHT22;1893;52.526;13.360;2022-07-04T04:53:01;18.20;99.90
3756;DHT22;1893;52.526;13.360;2022-07-04T04:55:27;18.30;99.90
3756;DHT22;1893;52.526;13.360;2022-07-04T04:57:52;18.40;99.90
3756;DHT22;1893;52.526;13.360;2022-07-04T05:00:18;18.40;99.90
3756;DHT22;1893;52.526;13.360;2022-07-04T05:02:44;18.30;99.90
3756;DHT22;1893;52.526;13.360;2022-07-04T05:05:10;18.30;99.90
3756;DHT22;1893;52.526;13.360;2022-07-04T05:07:35;18.30;99.90
3756;DHT22;1893;52.526;13.360;2022-07-04T05:10:02;18.40;99.90
3756;DHT22;1893;52.526;13.360;2022-07-04T05:12:28;18.50;99.90
3756;DHT22;1893;52.526;13.360;2022-07-04T05:14:54;18.60;99.90
3756;DHT22;1893;52.526;13.360;2022-07-04T05:17:20;18.70;99.90
3756;DHT22;1893;52.526;13.360;2022-07-04T05:19:45;18.80;99.90
3756;DHT22;1893;52.526;13.360;2022-07-04T05:22:11;18.80;99.90
3756;DHT22;1893;52.526;13.360;2022-07-04T05:24:36;18.70;99.90
3756;DHT22;1893;52.526;13.360;2022-07-04T05:27:06;18.80;99.90
3756;DHT22;1893;52.526;13.360;2022-07-04T05:29:32;18.80;99.90
3756;DHT22;1893;52.526;13.360;2022-07-04T05:31:58;18.70;99.90
3756;DHT22;1893;52.526;13.360;2022-07-04T05:34:23;18.70;99.90
3756;DHT22;1893;52.526;13.360;2022-07-04T05:36:49;18.60;99.90
3756;DHT22;1893;52.526;13.360;2022-07-04T05:39:14;18.40;99.90
3756;DHT22;1893;52.526;13.360;2022-07-04T05:41:40;18.50;99.90
3756;DHT22;1893;52.526;13.360;2022-07-04T05:44:06;18.50;99.90
3756;DHT22;1893;52.526;13.360;2022-07-04T05:46:31;18.70;99.90
3756;DHT22;1893;52.526;13.360;2022-07-04T05:48:57;18.80;99.90
3756;DHT22;1893;52.526;13.360;2022-07-04T05:51:22;19.00;99.90
3756;DHT22;1893;52.526;13.360;2022-07-04T05:53:48;19.00;99.90
3756;DHT22;1893;52.526;13.360;2022-07-04T05:56:14;19.00;99.90
3756;DHT22;1893;52.526;13.360;2022-07-04T05:58:39;19.10;99.90
3756;DHT22;1893;52.526;13.360;2022-07-04T06:01:06;19.00;99.90
3756;DHT22;1893;52.526;13.360;2022-07-04T06:03:31;18.90;99.90
3756;DHT22;1893;52.526;13.360;2022-07-04T06:05:57;19.10;99.90
3756;DHT22;1893;52.526;13.360;2022-07-04T06:08:23;19.30;99.90
3756;DHT22;1893;52.526;13.360;2022-07-04T06:10:48;19.40;99.90
3756;DHT22;1893;52.526;13.360;2022-07-04T06:13:15;19.50;99.90
3756;DHT22;1893;52.526;13.360;2022-07-04T06:15:40;19.60;99.90
3756;DHT22;1893;52.526;13.360;2022-07-04T06:18:06;19.60;19.30
3756;DHT22;1893;52.526;13.360;2022-07-04T06:20:32;19.70;1.00
3756;DHT22;1893;52.526;13.360;2022-07-04T06:22:58;19.80;1.00
3756;DHT22;1893;52.526;13.360;2022-07-04T06:25:23;20.00;1.00
3756;DHT22;1893;52.526;13.360;2022-07-04T06:27:50;20.00;1.00
3756;DHT22;1893;52.526;13.360;2022-07-04T06:30:17;20.00;1.00
3756;DHT22;1893;52.526;13.360;2022-07-04T06:32:51;20.10;1.00
3756;DHT22;1893;52.526;13.360;2022-07-04T06:35:21;20.20;1.00
3756;DHT22;1893;52.526;13.360;2022-07-04T06:38:05;20.20;99.90
3756;DHT22;1893;52.526;13.360;2022-07-04T06:40:31;20.20;19.70
3756;DHT22;1893;52.526;13.360;2022-07-04T06:42:57;20.20;1.00
3756;DHT22;1893;52.526;13.360;2022-07-04T06:45:22;20.30;1.00
3756;DHT22;1893;52.526;13.360;2022-07-04T06:47:48;20.50;99.90
3756;DHT22;1893;52.526;13.360;2022-07-04T06:50:13;20.70;99.90
3756;DHT22;1893;52.526;13.360;2022-07-04T06:52:39;20.70;1.00
3756;DHT22;1893;52.526;13.360;2022-07-04T06:55:06;20.70;99.90
3756;DHT22;1893;52.526;13.360;2022-07-04T06:57:32;20.50;1.00
3756;DHT22;1893;52.526;13.360;2022-07-04T06:59:57;20.60;99.90
3756;DHT22;1893;52.526;13.360;2022-07-04T07:02:23;20.90;99.30
3756;DHT22;1893;52.526;13.360;2022-07-04T07:04:49;20.90;99.90
3756;DHT22;1893;52.526;13.360;2022-07-04T07:07:14;20.80;99.90
3756;DHT22;1893;52.526;13.360;2022-07-04T07:09:40;21.00;1.00
3756;DHT22;1893;52.526;13.360;2022-07-04T07:12:05;20.90;99.90
3756;DHT22;1893;52.526;13.360;2022-07-04T07:14:31;21.00;1.00
3756;DHT22;1893;52.526;13.360;2022-07-04T07:16:57;21.00;1.00
3756;DHT22;1893;52.526;13.360;2022-07-04T07:19:22;20.80;99.90
3756;DHT22;1893;52.526;13.360;2022-07-04T07:21:48;21.10;1.00
3756;DHT22;1893;52.526;13.360;2022-07-04T07:24:13;21.30;1.00
3756;DHT22;1893;52.526;13.360;2022-07-04T07:26:39;21.50;1.00
3756;DHT22;1893;52.526;13.360;2022-07-04T07:29:04;21.50;1.00
3756;DHT22;1893;52.526;13.360;2022-07-04T07:31:31;21.40;16.70
3756;DHT22;1893;52.526;13.360;2022-07-04T07:33:57;21.20;99.90
3756;DHT22;1893;52.526;13.360;2022-07-04T07:36:22;21.00;99.90
3756;DHT22;1893;52.526;13.360;2022-07-04T07:38:48;20.90;1.00
3756;DHT22;1893;52.526;13.360;2022-07-04T07:41:13;20.80;1.00
3756;DHT22;1893;52.526;13.360;2022-07-04T07:43:39;20.90;1.00
3756;DHT22;1893;52.526;13.360;2022-07-04T07:46:06;20.80;1.00
3756;DHT22;1893;52.526;13.360;2022-07-04T07:48:33;20.70;99.90
3756;DHT22;1893;52.526;13.360;2022-07-04T07:50:58;20.70;99.90
3756;DHT22;1893;52.526;13.360;2022-07-04T07:53:24;20.60;99.90
3756;DHT22;1893;52.526;13.360;2022-07-04T07:55:49;20.70;99.90
3756;DHT22;1893;52.526;13.360;2022-07-04T07:58:15;20.70;99.90
3756;DHT22;1893;52.526;13.360;2022-07-04T08:00:41;20.70;99.90
3756;DHT22;1893;52.526;13.360;2022-07-04T08:03:06;20.90;1.00
3756;DHT22;1893;52.526;13.360;2022-07-04T08:05:52;21.10;1.00
3756;DHT22;1893;52.526;13.360;2022-07-04T08:08:18;21.00;1.00
3756;DHT22;1893;52.526;13.360;2022-07-04T08:10:44;21.10;1.00
3756;DHT22;1893;52.526;13.360;2022-07-04T08:13:09;21.20;1.00
3756;DHT22;1893;52.526;13.360;2022-07-04T08:15:35;21.30;1.00
3756;DHT22;1893;52.526;13.360;2022-07-04T08:18:01;21.10;1.00
3756;DHT22;1893;52.526;13.360;2022-07-04T08:20:27;21.20;1.00
3756;DHT22;1893;52.526;13.360;2022-07-04T08:22:52;21.10;1.00
3756;DHT22;1893;52.526;13.360;2022-07-04T08:25:18;21.10;1.00
3756;DHT22;1893;52.526;13.360;2022-07-04T08:27:43;21.30;1.00
3756;DHT22;1893;52.526;13.360;2022-07-04T08:30:09;21.50;1.00
3756;DHT22;1893;52.526;13.360;2022-07-04T08:32:35;21.60;1.00
3756;DHT22;1893;52.526;13.360;2022-07-04T08:35:03;21.60;1.00
3756;DHT22;1893;52.526;13.360;2022-07-04T08:37:28;21.80;1.00
3756;DHT22;1893;52.526;13.360;2022-07-04T08:39:54;21.60;1.00
3756;DHT22;1893;52.526;13.360;2022-07-04T08:42:21;21.70;1.00
3756;DHT22;1893;52.526;13.360;2022-07-04T08:44:52;22.00;1.00
3756;DHT22;1893;52.526;13.360;2022-07-04T08:47:22;21.80;1.00
3756;DHT22;1893;52.526;13.360;2022-07-04T08:50:06;21.90;1.00
3756;DHT22;1893;52.526;13.360;2022-07-04T08:55:06;22.80;99.90
3756;DHT22;1893;52.526;13.360;2022-07-04T08:57:52;23.20;99.90
3756;DHT22;1893;52.526;13.360;2022-07-04T09:00:36;23.50;99.90
3756;DHT22;1893;52.526;13.360;2022-07-04T09:03:03;23.20;99.90
3756;DHT22;1893;52.526;13.360;2022-07-04T09:05:29;22.50;1.00
3756;DHT22;1893;52.526;13.360;2022-07-04T09:07:57;21.90;1.00
3756;DHT22;1893;52.526;13.360;2022-07-04T09:10:23;21.90;1.00
3756;DHT22;1893;52.526;13.360;2022-07-04T09:12:49;22.20;1.00
3756;DHT22;1893;52.526;13.360;2022-07-04T09:15:16;22.30;1.00
3756;DHT22;1893;52.526;13.360;2022-07-04T09:17:41;22.60;1.00
3756;DHT22;1893;52.526;13.360;2022-07-04T09:20:18;22.90;1.00
3756;DHT22;1893;52.526;13.360;2022-07-04T09:22:45;22.90;99.90
3756;DHT22;1893;52.526;13.360;2022-07-04T09:25:11;23.00;99.90
3756;DHT22;1893;52.526;13.360;2022-07-04T09:27:42;23.30;99.90
3756;DHT22;1893;52.526;13.360;2022-07-04T09:30:11;23.00;99.90
3756;DHT22;1893;52.526;13.360;2022-07-04T09:32:38;23.60;99.90
3756;DHT22;1893;52.526;13.360;2022-07-04T09:35:06;23.40;99.90
3756;DHT22;1893;52.526;13.360;2022-07-04T09:37:37;23.10;99.90
3756;DHT22;1893;52.526;13.360;2022-07-04T09:40:05;23.00;99.90
3756;DHT22;1893;52.526;13.360;2022-07-04T09:42:38;22.90;99.90
3756;DHT22;1893;52.526;13.360;2022-07-04T09:45:06;23.00;99.90
3756;DHT22;1893;52.526;13.360;2022-07-04T09:47:31;23.30;99.90
3756;DHT22;1893;52.526;13.360;2022-07-04T09:50:03;23.70;99.90
3756;DHT22;1893;52.526;13.360;2022-07-04T09:52:30;23.60;99.90
3756;DHT22;1893;52.526;13.360;2022-07-04T09:55:03;23.70;99.90
3756;DHT22;1893;52.526;13.360;2022-07-04T09:57:31;24.20;99.90
3756;DHT22;1893;52.526;13.360;2022-07-04T10:00:23;24.50;99.90
3756;DHT22;1893;52.526;13.360;2022-07-04T10:02:49;25.30;99.90
3756;DHT22;1893;52.526;13.360;2022-07-04T10:05:26;26.10;99.90
3756;DHT22;1893;52.526;13.360;2022-07-04T10:07:54;25.90;99.90
3756;DHT22;1893;52.526;13.360;2022-07-04T10:10:31;26.40;99.90
3756;DHT22;1893;52.526;13.360;2022-07-04T10:13:04;26.00;99.90
3756;DHT22;1893;52.526;13.360;2022-07-04T10:15:31;25.20;99.90
3756;DHT22;1893;52.526;13.360;2022-07-04T10:17:57;24.60;99.90
3756;DHT22;1893;52.526;13.360;2022-07-04T10:20:23;25.40;99.90
3756;DHT22;1893;52.526;13.360;2022-07-04T10:22:49;25.50;99.90
3756;DHT22;1893;52.526;13.360;2022-07-04T10:25:14;26.00;99.90
3756;DHT22;1893;52.526;13.360;2022-07-04T10:27:41;27.00;99.90
3756;DHT22;1893;52.526;13.360;2022-07-04T10:30:10;27.40;99.90
3756;DHT22;1893;52.526;13.360;2022-07-04T10:32:38;27.60;99.90
3756;DHT22;1893;52.526;13.360;2022-07-04T10:35:04;26.10;99.90
3756;DHT22;1893;52.526;13.360;2022-07-04T10:38:02;25.00;99.90
3756;DHT22;1893;52.526;13.360;2022-07-04T10:48:30;23.80;99.90
3756;DHT22;1893;52.526;13.360;2022-07-04T10:53:24;24.40;99.90
3756;DHT22;1893;52.526;13.360;2022-07-04T10:55:49;25.60;99.90
3756;DHT22;1893;52.526;13.360;2022-07-04T10:58:38;26.60;99.90
3756;DHT22;1893;52.526;13.360;2022-07-04T11:01:11;27.40;99.90
3756;DHT22;1893;52.526;13.360;2022-07-04T11:03:50;28.20;99.90
3756;DHT22;1893;52.526;13.360;2022-07-04T11:09:16;26.60;99.90
3756;DHT22;1893;52.526;13.360;2022-07-04T11:14:36;25.00;99.90
3756;DHT22;1893;52.526;13.360;2022-07-04T11:17:07;24.80;99.90
3756;DHT22;1893;52.526;13.360;2022-07-04T11:19:33;25.80;99.90
3756;DHT22;1893;52.526;13.360;2022-07-04T11:21:59;27.10;99.90
3756;DHT22;1893;52.526;13.360;2022-07-04T11:24:25;26.60;99.90
3756;DHT22;1893;52.526;13.360;2022-07-04T11:26:51;25.80;99.90
3756;DHT22;1893;52.526;13.360;2022-07-04T11:29:17;26.70;99.90
3756;DHT22;1893;52.526;13.360;2022-07-04T11:31:49;27.10;99.90
3756;DHT22;1893;52.526;13.360;2022-07-04T11:34:15;27.20;99.90
3756;DHT22;1893;52.526;13.360;2022-07-04T11:36:43;26.50;99.90
3756;DHT22;1893;52.526;13.360;2022-07-04T11:39:17;26.90;99.90
3756;DHT22;1893;52.526;13.360;2022-07-04T11:41:49;26.60;99.90
3756;DHT22;1893;52.526;13.360;2022-07-04T11:44:42;26.10;99.90
3756;DHT22;1893;52.526;13.360;2022-07-04T11:47:38;25.60;99.90
3756;DHT22;1893;52.526;13.360;2022-07-04T11:50:09;25.70;99.90
3756;DHT22;1893;52.526;13.360;2022-07-04T11:52:41;25.50;99.90
3756;DHT22;1893;52.526;13.360;2022-07-04T11:55:10;25.50;99.90
3756;DHT22;1893;52.526;13.360;2022-07-04T11:57:40;26.00;99.90
3756;DHT22;1893;52.526;13.360;2022-07-04T12:02:34;25.90;99.90
3756;DHT22;1893;52.526;13.360;2022-07-04T12:05:01;25.10;99.90
3756;DHT22;1893;52.526;13.360;2022-07-04T12:07:29;25.10;99.90
3756;DHT22;1893;52.526;13.360;2022-07-04T12:10:13;24.60;99.90
3756;DHT22;1893;52.526;13.360;2022-07-04T12:12:53;24.10;99.90
3756;DHT22;1893;52.526;13.360;2022-07-04T12:15:19;24.20;99.90
3756;DHT22;1893;52.526;13.360;2022-07-04T12:17:44;23.90;99.90
3756;DHT22;1893;52.526;13.360;2022-07-04T12:20:13;23.70;99.90
3756;DHT22;1893;52.526;13.360;2022-07-04T12:22:41;24.20;99.90
3756;DHT22;1893;52.526;13.360;2022-07-04T12:25:19;24.70;99.90
3756;DHT22;1893;52.526;13.360;2022-07-04T12:27:52;25.50;99.90
3756;DHT22;1893;52.526;13.360;2022-07-04T12:30:17;25.50;99.90
3756;DHT22;1893;52.526;13.360;2022-07-04T12:32:44;25.40;99.90
3756;DHT22;1893;52.526;13.360;2022-07-04T12:35:30;25.70;99.90
3756;DHT22;1893;52.526;13.360;2022-07-04T12:38:05;25.40;99.90
3756;DHT22;1893;52.526;13.360;2022-07-04T12:40:33;25.00;99.90
3756;DHT22;1893;52.526;13.360;2022-07-04T12:42:59;25.00;99.90
3756;DHT22;1893;52.526;13.360;2022-07-04T12:45:25;24.70;99.90
3756;DHT22;1893;52.526;13.360;2022-07-04T12:47:51;25.00;99.90
3756;DHT22;1893;52.526;13.360;2022-07-04T12:50:26;25.10;99.90
3756;DHT22;1893;52.526;13.360;2022-07-04T12:52:52;25.40;99.90
3756;DHT22;1893;52.526;13.360;2022-07-04T12:55:18;25.60;99.90
3756;DHT22;1893;52.526;13.360;2022-07-04T12:57:43;25.60;99.90
3756;DHT22;1893;52.526;13.360;2022-07-04T13:00:09;25.40;99.90
3756;DHT22;1893;52.526;13.360;2022-07-04T13:02:35;25.10;99.90
3756;DHT22;1893;52.526;13.360;2022-07-04T13:05:00;25.20;99.90
3756;DHT22;1893;52.526;13.360;2022-07-04T13:07:26;25.50;99.90
3756;DHT22;1893;52.526;13.360;2022-07-04T13:09:52;25.50;99.90
3756;DHT22;1893;52.526;13.360;2022-07-04T13:12:17;25.40;99.90
3756;DHT22;1893;52.526;13.360;2022-07-04T13:14:57;24.80;99.90
3756;DHT22;1893;52.526;13.360;2022-07-04T13:17:25;25.20;99.90
3756;DHT22;1893;52.526;13.360;2022-07-04T13:19:51;25.60;99.90
3756;DHT22;1893;52.526;13.360;2022-07-04T13:22:22;25.90;99.90
3756;DHT22;1893;52.526;13.360;2022-07-04T13:24:49;25.90;99.90
3756;DHT22;1893;52.526;13.360;2022-07-04T13:27:18;25.60;99.90
3756;DHT22;1893;52.526;13.360;2022-07-04T13:29:44;25.80;99.90
3756;DHT22;1893;52.526;13.360;2022-07-04T13:32:10;25.80;99.90
3756;DHT22;1893;52.526;13.360;2022-07-04T13:34:35;25.40;99.90
3756;DHT22;1893;52.526;13.360;2022-07-04T13:37:02;24.90;99.90
3756;DHT22;1893;52.526;13.360;2022-07-04T13:39:27;24.60;99.90
3756;DHT22;1893;52.526;13.360;2022-07-04T13:41:53;24.50;99.90
3756;DHT22;1893;52.526;13.360;2022-07-04T13:44:18;24.90;99.90
3756;DHT22;1893;52.526;13.360;2022-07-04T13:46:44;25.40;99.90
3756;DHT22;1893;52.526;13.360;2022-07-04T13:49:10;25.50;99.90
3756;DHT22;1893;52.526;13.360;2022-07-04T13:51:37;25.60;99.90
3756;DHT22;1893;52.526;13.360;2022-07-04T13:54:02;25.80;99.90
3756;DHT22;1893;52.526;13.360;2022-07-04T13:56:28;25.40;99.90
3756;DHT22;1893;52.526;13.360;2022-07-04T13:58:54;25.10;99.90
3756;DHT22;1893;52.526;13.360;2022-07-04T14:01:20;25.20;99.90
3756;DHT22;1893;52.526;13.360;2022-07-04T14:03:47;25.50;99.90
3756;DHT22;1893;52.526;13.360;2022-07-04T14:06:13;25.80;99.90
3756;DHT22;1893;52.526;13.360;2022-07-04T14:08:39;26.30;99.90
3756;DHT22;1893;52.526;13.360;2022-07-04T14:11:04;26.20;99.90
3756;DHT22;1893;52.526;13.360;2022-07-04T14:13:30;25.90;99.90
3756;DHT22;1893;52.526;13.360;2022-07-04T14:15:56;26.20;99.90
3756;DHT22;1893;52.526;13.360;2022-07-04T14:18:22;26.30;99.90
3756;DHT22;1893;52.526;13.360;2022-07-04T14:20:47;26.10;99.90
3756;DHT22;1893;52.526;13.360;2022-07-04T14:23:15;25.80;99.90
3756;DHT22;1893;52.526;13.360;2022-07-04T14:26:00;25.50;99.90
3756;DHT22;1893;52.526;13.360;2022-07-04T14:28:26;26.00;99.90
3756;DHT22;1893;52.526;13.360;2022-07-04T14:30:51;25.90;99.90
3756;DHT22;1893;52.526;13.360;2022-07-04T14:33:17;26.10;99.90
3756;DHT22;1893;52.526;13.360;2022-07-04T14:35:42;25.70;99.90
3756;DHT22;1893;52.526;13.360;2022-07-04T14:38:08;25.50;99.90
3756;DHT22;1893;52.526;13.360;2022-07-04T14:40:33;25.70;99.90
3756;DHT22;1893;52.526;13.360;2022-07-04T14:42:59;25.70;99.90
3756;DHT22;1893;52.526;13.360;2022-07-04T14:45:24;25.30;99.90
3756;DHT22;1893;52.526;13.360;2022-07-04T14:47:50;24.80;99.90
3756;DHT22;1893;52.526;13.360;2022-07-04T14:50:15;24.70;99.90
3756;DHT22;1893;52.526;13.360;2022-07-04T14:52:41;24.70;99.90
3756;DHT22;1893;52.526;13.360;2022-07-04T14:55:07;24.80;99.90
3756;DHT22;1893;52.526;13.360;2022-07-04T14:57:32;25.00;99.90
3756;DHT22;1893;52.526;13.360;2022-07-04T14:59:58;25.40;99.90
3756;DHT22;1893;52.526;13.360;2022-07-04T15:02:23;25.40;99.90
3756;DHT22;1893;52.526;13.360;2022-07-04T15:04:49;25.40;99.90
3756;DHT22;1893;52.526;13.360;2022-07-04T15:07:15;25.30;99.90
3756;DHT22;1893;52.526;13.360;2022-07-04T15:09:41;25.20;99.90
3756;DHT22;1893;52.526;13.360;2022-07-04T15:12:06;25.20;99.90
3756;DHT22;1893;52.526;13.360;2022-07-04T15:14:32;25.20;99.90
3756;DHT22;1893;52.526;13.360;2022-07-04T15:16:58;25.20;99.90
3756;DHT22;1893;52.526;13.360;2022-07-04T15:19:24;25.50;99.90
3756;DHT22;1893;52.526;13.360;2022-07-04T15:21:50;25.70;99.90
3756;DHT22;1893;52.526;13.360;2022-07-04T15:24:34;25.70;99.90
3756;DHT22;1893;52.526;13.360;2022-07-04T15:27:00;25.70;99.90
3756;DHT22;1893;52.526;13.360;2022-07-04T15:29:25;25.60;99.90
3756;DHT22;1893;52.526;13.360;2022-07-04T15:31:51;25.70;99.90
3756;DHT22;1893;52.526;13.360;2022-07-04T15:34:17;25.90;99.90
3756;DHT22;1893;52.526;13.360;2022-07-04T15:36:43;26.00;99.90
3756;DHT22;1893;52.526;13.360;2022-07-04T15:39:14;25.60;99.90
3756;DHT22;1893;52.526;13.360;2022-07-04T15:41:40;25.10;99.90
3756;DHT22;1893;52.526;13.360;2022-07-04T15:44:06;24.70;99.10
3756;DHT22;1893;52.526;13.360;2022-07-04T15:46:32;24.70;99.20
3756;DHT22;1893;52.526;13.360;2022-07-04T15:48:58;24.90;99.90
3756;DHT22;1893;52.526;13.360;2022-07-04T15:51:24;25.00;99.90
3756;DHT22;1893;52.526;13.360;2022-07-04T15:53:49;25.20;99.90
3756;DHT22;1893;52.526;13.360;2022-07-04T15:56:15;25.20;99.90
3756;DHT22;1893;52.526;13.360;2022-07-04T15:58:40;25.20;99.90
3756;DHT22;1893;52.526;13.360;2022-07-04T16:01:06;25.40;99.90
3756;DHT22;1893;52.526;13.360;2022-07-04T16:03:31;25.40;99.90
3756;DHT22;1893;52.526;13.360;2022-07-04T16:05:57;25.40;99.90
3756;DHT22;1893;52.526;13.360;2022-07-04T16:08:23;25.30;99.50
3756;DHT22;1893;52.526;13.360;2022-07-04T16:10:49;25.30;98.90